Time;durP1;ratioP1;P1;durP2;ratioP2;P2;SDS_P1;SDS_P2;PMS_P1;PMS_P2;Temp;Humidity;BMP_temperature;BMP_pressure;BME280_temperature;BME280_humidity;BME280_pressure;Samples;Min_cycle;Max_cycle;Signal;HPM_P1;HPM_P2
2021/04/12 00:00:16;;;;;;;1.20;1.10;;;23.10;28.10;;;;;;5008471;28;20698;-53
2021/04/12 00:02:42;;;;;;;1.30;1.20;;;23.10;28.10;;;;;;5009776;28;20207;-52
2021/04/12 00:05:08;;;;;;;1.58;0.95;;;23.10;28.10;;;;;;5009393;28;20722;-51
2021/04/12 00:07:34;;;;;;;1.25;1.10;;;23.10;28.10;;;;;;5009829;28;20242;-50
2021/04/12 00:10:00;;;;;;;1.00;1.00;;;23.10;28.10;;;;;;5009604;28;20219;-52
2021/04/12 00:12:26;;;;;;;1.17;1.10;;;23.10;28.10;;;;;;5024154;23;20230;-56
2021/04/12 00:14:51;;;;;;;1.23;1.10;;;23.10;28.10;;;;;;5015439;28;20230;-57
2021/04/12 00:17:17;;;;;;;1.25;1.10;;;23.10;28.10;;;;;;5029341;28;20202;-57
2021/04/12 00:19:43;;;;;;;1.52;1.10;;;23.10;28.10;;;;;;5028650;28;20226;-58
2021/04/12 00:22:09;;;;;;;1.17;1.08;;;23.10;28.10;;;;;;5030872;28;20206;-57
2021/04/12 00:24:35;;;;;;;1.97;1.23;;;23.10;28.10;;;;;;5029135;28;20281;-56
2021/04/12 00:27:01;;;;;;;1.75;1.00;;;23.10;28.10;;;;;;5030600;28;20213;-57
2021/04/12 00:29:27;;;;;;;1.00;1.00;;;23.10;28.10;;;;;;5029791;28;20252;-56
2021/04/12 00:31:53;;;;;;;1.10;1.10;;;23.10;28.10;;;;;;5030523;28;20741;-56
2021/04/12 00:34:19;;;;;;;2.30;1.35;;;23.10;28.10;;;;;;5029693;28;20209;-57
2021/04/12 00:36:45;;;;;;;0.95;0.95;;;23.10;28.10;;;;;;5030916;28;20310;-56
2021/04/12 00:39:11;;;;;;;1.40;1.30;;;23.10;28.10;;;;;;5028936;28;20257;-57
2021/04/12 00:41:37;;;;;;;1.15;0.90;;;23.10;28.10;;;;;;5030997;28;20218;-56
2021/04/12 00:44:03;;;;;;;1.00;1.00;;;23.10;28.10;;;;;;5030424;28;20650;-57
2021/04/12 00:46:29;;;;;;;1.20;1.10;;;23.10;28.10;;;;;;5030013;28;20602;-55
2021/04/12 00:48:55;;;;;;;1.20;1.10;;;23.10;28.10;;;;;;5029459;28;20260;-56
2021/04/12 00:51:21;;;;;;;0.97;0.97;;;23.10;28.10;;;;;;5028160;28;20209;-54
2021/04/12 00:53:47;;;;;;;0.90;0.90;;;23.10;28.10;;;;;;5030605;28;20445;-57
2021/04/12 00:56:13;;;;;;;1.30;1.20;;;23.10;28.10;;;;;;5029447;28;20615;-55
2021/04/12 00:58:39;;;;;;;1.33;1.10;;;23.10;28.10;;;;;;5028613;28;20202;-54
2021/04/12 01:01:05;;;;;;;1.30;1.10;;;23.10;28.10;;;;;;5028119;28;20240;-56
2021/04/12 01:03:30;;;;;;;1.33;1.23;;;23.10;28.10;;;;;;5030648;28;20276;-54
2021/04/12 01:05:56;;;;;;;1.10;1.00;;;23.10;28.10;;;;;;5029636;28;20226;-57
2021/04/12 01:08:23;;;;;;;1.00;1.00;;;23.10;28.70;;;;;;5030092;28;20550;-57
2021/04/12 01:10:49;;;;;;;1.20;1.10;;;23.10;28.10;;;;;;5028648;28;20220;-54
2021/04/12 01:13:15;;;;;;;0.83;0.83;;;23.10;28.10;;;;;;5028189;28;20202;-56
2021/04/12 01:15:41;;;;;;;1.40;1.30;;;23.10;28.10;;;;;;5030430;28;20225;-56
2021/04/12 01:18:07;;;;;;;1.30;1.10;;;23.10;28.10;;;;;;5029352;28;20227;-57
2021/04/12 01:20:33;;;;;;;1.37;0.90;;;23.10;28.10;;;;;;5028195;28;20232;-57
2021/04/12 01:22:59;;;;;;;1.37;0.90;;;23.10;28.10;;;;;;5029123;28;20256;-55
2021/04/12 01:25:25;;;;;;;1.00;1.00;;;23.10;28.10;;;;;;5009811;28;20226;-56
2021/04/12 01:27:51;;;;;;;1.00;1.00;;;23.10;28.10;;;;;;5017267;28;20217;-56
2021/04/12 01:30:17;;;;;;;1.37;1.10;;;23.10;28.10;;;;;;5026427;28;20225;-55
2021/04/12 01:32:43;;;;;;;1.20;1.10;;;23.10;28.10;;;;;;5028873;28;20201;-56
2021/04/12 01:35:09;;;;;;;0.90;0.87;;;23.10;28.10;;;;;;5030299;28;20667;-56
2021/04/12 01:37:35;;;;;;;1.73;1.00;;;23.10;28.10;;;;;;5028753;28;20216;-57
2021/04/12 01:40:01;;;;;;;1.00;0.90;;;23.10;28.10;;;;;;5027389;28;20225;-55
2021/04/12 01:42:27;;;;;;;1.00;0.97;;;23.10;28.10;;;;;;5025392;28;20421;-56
2021/04/12 01:44:53;;;;;;;1.27;1.00;;;23.10;28.10;;;;;;5028460;28;20253;-55
2021/04/12 01:47:19;;;;;;;0.97;0.90;;;23.10;28.10;;;;;;5028998;28;20647;-56
2021/04/12 01:49:45;;;;;;;1.27;1.07;;;23.10;28.10;;;;;;5027288;28;20203;-59
2021/04/12 01:52:11;;;;;;;1.00;1.00;;;23.10;28.10;;;;;;5029333;28;20217;-56
2021/04/12 01:54:36;;;;;;;1.13;1.03;;;23.10;28.10;;;;;;5029706;28;20284;-56
2021/04/12 01:57:02;;;;;;;0.90;0.90;;;23.10;28.10;;;;;;5029148;28;20650;-56
2021/04/12 01:59:28;;;;;;;1.13;1.10;;;23.10;28.10;;;;;;5029655;28;20354;-57
2021/04/12 02:01:54;;;;;;;0.93;0.93;;;23.10;28.10;;;;;;5028374;28;20666;-56
2021/04/12 02:04:20;;;;;;;0.90;0.90;;;23.10;28.10;;;;;;5030221;28;20230;-56
2021/04/12 02:06:46;;;;;;;1.47;1.20;;;23.10;28.10;;;;;;5028715;28;20542;-57
2021/04/12 02:09:12;;;;;;;1.60;1.50;;;23.10;28.10;;;;;;5029739;28;20195;-57
2021/04/12 02:11:38;;;;;;;1.00;1.00;;;23.10;28.10;;;;;;5031790;28;20233;-56
2021/04/12 02:14:04;;;;;;;1.20;1.10;;;23.10;28.10;;;;;;5028448;28;20371;-56
2021/04/12 02:16:30;;;;;;;1.10;1.00;;;23.10;28.10;;;;;;5025924;28;20209;-57
2021/04/12 02:18:56;;;;;;;1.63;0.93;;;23.10;28.10;;;;;;5032452;28;20647;-56
2021/04/12 02:21:22;;;;;;;1.00;0.90;;;23.10;28.10;;;;;;5031669;28;20202;-57
2021/04/12 02:23:48;;;;;;;2.33;1.03;;;23.10;28.10;;;;;;5030553;28;20217;-57
2021/04/12 02:26:14;;;;;;;1.00;1.00;;;23.10;28.10;;;;;;5032973;28;20648;-56
2021/04/12 02:28:40;;;;;;;2.10;1.00;;;23.10;28.10;;;;;;5033552;28;20510;-54
2021/04/12 02:31:06;;;;;;;1.10;1.10;;;23.10;28.10;;;;;;5032000;28;20271;-55
2021/04/12 02:33:32;;;;;;;1.47;1.13;;;23.10;28.10;;;;;;5031787;28;20208;-55
2021/04/12 02:35:58;;;;;;;1.00;0.93;;;23.10;28.10;;;;;;5032871;28;20568;-56
2021/04/12 02:38:24;;;;;;;0.90;0.90;;;23.10;28.10;;;;;;5032375;28;20214;-56
2021/04/12 02:40:50;;;;;;;0.93;0.93;;;23.10;28.10;;;;;;5032567;28;20234;-56
2021/04/12 02:43:16;;;;;;;0.87;0.87;;;23.10;28.10;;;;;;5031768;28;20675;-56
2021/04/12 02:45:42;;;;;;;1.00;0.90;;;23.10;28.10;;;;;;5032774;28;20546;-56
2021/04/12 02:48:08;;;;;;;1.00;0.80;;;23.10;28.10;;;;;;5031776;28;20207;-57
2021/04/12 02:50:34;;;;;;;1.27;0.80;;;23.10;28.10;;;;;;5031686;28;20658;-57
2021/04/12 02:53:00;;;;;;;1.20;1.10;;;23.10;28.10;;;;;;5027225;28;20272;-54
2021/04/12 02:55:26;;;;;;;1.10;1.00;;;23.10;28.10;;;;;;5025209;28;20222;-56
2021/04/12 02:57:52;;;;;;;0.90;0.90;;;23.10;28.10;;;;;;5032202;28;20205;-56
2021/04/12 03:00:18;;;;;;;1.23;0.87;;;23.10;28.10;;;;;;5031362;28;20229;-55
2021/04/12 03:02:44;;;;;;;1.10;1.10;;;23.10;28.10;;;;;;5031669;28;20793;-57
2021/04/12 03:05:10;;;;;;;1.00;0.90;;;23.10;28.10;;;;;;5032055;28;20216;-55
2021/04/12 03:07:36;;;;;;;0.97;0.80;;;23.10;28.10;;;;;;5031260;28;20250;-56
2021/04/12 03:10:02;;;;;;;1.10;1.00;;;23.10;28.10;;;;;;5031657;28;20257;-57
2021/04/12 03:12:28;;;;;;;0.90;0.90;;;23.10;28.10;;;;;;5031028;28;20209;-55
2021/04/12 03:14:54;;;;;;;0.90;0.90;;;23.00;28.10;;;;;;5031010;28;20729;-57
2021/04/12 03:17:20;;;;;;;2.47;1.40;;;23.10;28.90;;;;;;5031357;28;20199;-56
2021/04/12 03:19:46;;;;;;;1.57;1.10;;;23.10;28.90;;;;;;5031153;28;20236;-55
2021/04/12 03:22:12;;;;;;;1.40;1.30;;;23.10;28.90;;;;;;5031819;28;20199;-56
2021/04/12 03:24:38;;;;;;;1.23;1.07;;;23.10;28.80;;;;;;5029131;28;20260;-53
2021/04/12 03:27:04;;;;;;;1.30;0.90;;;23.10;28.90;;;;;;5031705;28;20206;-54
2021/04/12 03:29:29;;;;;;;1.80;1.07;;;23.10;28.70;;;;;;5032048;28;20690;-55
2021/04/12 03:31:55;;;;;;;2.53;0.80;;;23.10;28.80;;;;;;5031131;28;20582;-54
2021/04/12 03:34:21;;;;;;;1.23;1.03;;;23.10;28.80;;;;;;5030834;28;20226;-55
2021/04/12 03:36:47;;;;;;;1.43;1.00;;;23.10;28.80;;;;;;5031067;28;20202;-55
2021/04/12 03:39:13;;;;;;;1.10;1.00;;;23.10;28.70;;;;;;5031678;28;20209;-55
2021/04/12 03:41:39;;;;;;;2.33;1.00;;;23.10;28.70;;;;;;5030421;28;20202;-55
2021/04/12 03:44:05;;;;;;;0.80;0.80;;;23.10;28.70;;;;;;5030051;28;20222;-56
2021/04/12 03:46:31;;;;;;;1.40;0.80;;;23.10;28.70;;;;;;5030882;28;20201;-56
2021/04/12 03:48:57;;;;;;;1.40;1.10;;;23.10;28.80;;;;;;5031880;28;20209;-53
2021/04/12 03:51:23;;;;;;;0.80;0.80;;;23.10;28.80;;;;;;5031182;28;20264;-57
2021/04/12 03:53:49;;;;;;;0.90;0.90;;;23.10;28.80;;;;;;5029099;28;20729;-54
2021/04/12 03:56:15;;;;;;;1.80;1.40;;;23.00;28.70;;;;;;5031841;28;20232;-56
2021/04/12 03:58:41;;;;;;;1.20;1.00;;;23.10;28.70;;;;;;5030852;28;20666;-56
2021/04/12 04:01:07;;;;;;;0.93;0.90;;;23.10;28.80;;;;;;5031006;28;20664;-56
2021/04/12 04:03:33;;;;;;;0.97;0.90;;;23.10;28.70;;;;;;5026920;28;20214;-55
2021/04/12 04:05:59;;;;;;;0.80;0.80;;;23.10;28.70;;;;;;5028782;28;20205;-55
2021/04/12 04:08:25;;;;;;;1.10;1.00;;;23.10;28.70;;;;;;5030771;28;20247;-58
2021/04/12 04:10:51;;;;;;;1.00;0.90;;;23.10;28.80;;;;;;5029697;28;20238;-54
2021/04/12 04:13:17;;;;;;;0.90;0.90;;;23.00;28.70;;;;;;5031228;28;20221;-55
2021/04/12 04:15:43;;;;;;;1.98;0.70;;;23.10;28.80;;;;;;5029115;28;20210;-54
2021/04/12 04:18:09;;;;;;;1.37;1.10;;;23.10;28.80;;;;;;5030015;28;20272;-55
2021/04/12 04:20:35;;;;;;;1.50;1.00;;;23.10;28.80;;;;;;5030879;28;20226;-56
2021/04/12 04:23:01;;;;;;;1.33;1.23;;;23.10;28.70;;;;;;5029452;28;20217;-53
2021/04/12 04:25:27;;;;;;;1.00;1.00;;;23.10;28.70;;;;;;5028771;28;20213;-54
2021/04/12 04:27:53;;;;;;;1.00;0.90;;;23.00;28.70;;;;;;5030219;28;20203;-55
2021/04/12 04:30:19;;;;;;;1.20;1.10;;;23.10;28.70;;;;;;5030338;28;20564;-55
2021/04/12 04:32:45;;;;;;;0.90;0.90;;;23.10;28.80;;;;;;5029242;28;20214;-56
2021/04/12 04:35:11;;;;;;;0.80;0.80;;;23.10;28.70;;;;;;5029426;28;20248;-55
2021/04/12 04:37:38;;;;;;;2.50;1.10;;;23.10;28.80;;;;;;5031007;28;20207;-56
2021/04/12 04:40:04;;;;;;;1.13;1.02;;;23.10;28.80;;;;;;5029465;28;20238;-55
2021/04/12 04:42:30;;;;;;;1.80;0.90;;;23.10;28.80;;;;;;5030489;28;20209;-57
2021/04/12 04:44:56;;;;;;;1.43;0.83;;;23.10;28.80;;;;;;5029740;28;20236;-56
2021/04/12 04:47:21;;;;;;;2.20;1.00;;;23.00;28.80;;;;;;5030422;28;20209;-55
2021/04/12 04:49:47;;;;;;;0.87;0.87;;;23.10;28.90;;;;;;5030066;28;20202;-55
2021/04/12 04:52:13;;;;;;;1.00;1.00;;;23.00;28.70;;;;;;5023331;28;20206;-55
2021/04/12 04:54:39;;;;;;;1.03;0.87;;;23.00;28.60;;;;;;5030408;28;20222;-55
2021/04/12 04:57:05;;;;;;;1.60;0.85;;;23.00;28.60;;;;;;5029054;28;20202;-55
2021/04/12 04:59:31;;;;;;;1.13;1.00;;;23.00;28.60;;;;;;5030532;28;20283;-56
2021/04/12 05:01:57;;;;;;;1.17;1.00;;;23.00;28.60;;;;;;5028854;28;20205;-53
2021/04/12 05:04:23;;;;;;;0.80;0.80;;;23.00;28.50;;;;;;5029967;28;20222;-55
2021/04/12 05:06:49;;;;;;;2.33;0.80;;;23.00;28.50;;;;;;5029104;28;20233;-53
2021/04/12 05:09:15;;;;;;;0.70;0.70;;;23.00;28.50;;;;;;5030136;28;20268;-56
2021/04/12 05:11:41;;;;;;;1.50;0.90;;;23.00;28.50;;;;;;5029135;28;20214;-56
2021/04/12 05:14:07;;;;;;;2.13;0.90;;;23.00;28.50;;;;;;5029855;28;20268;-56
2021/04/12 05:16:33;;;;;;;1.10;0.80;;;23.00;28.40;;;;;;5028259;28;20278;-55
2021/04/12 05:18:59;;;;;;;1.90;0.80;;;23.00;28.50;;;;;;5028892;28;20206;-54
2021/04/12 05:21:25;;;;;;;1.07;0.97;;;23.00;28.50;;;;;;5029829;28;20225;-54
2021/04/12 05:23:51;;;;;;;0.80;0.80;;;23.00;28.50;;;;;;5027503;28;20652;-54
2021/04/12 05:26:17;;;;;;;1.87;1.10;;;23.00;28.40;;;;;;5027150;28;20209;-54
2021/04/12 05:28:43;;;;;;;0.90;0.80;;;23.00;28.40;;;;;;5027466;28;20289;-56
2021/04/12 05:31:09;;;;;;;0.90;0.90;;;23.00;28.40;;;;;;5028782;28;20216;-56
2021/04/12 05:33:35;;;;;;;0.87;0.87;;;23.00;28.40;;;;;;5028383;28;20276;-56
2021/04/12 05:36:01;;;;;;;1.13;0.70;;;23.00;28.50;;;;;;5029958;28;20727;-56
2021/04/12 05:38:26;;;;;;;0.80;0.80;;;23.00;28.40;;;;;;5028802;28;20217;-55
2021/04/12 05:40:53;;;;;;;1.27;1.00;;;23.00;28.30;;;;;;5028671;28;20236;-55
2021/04/12 05:43:18;;;;;;;0.77;0.77;;;23.00;28.30;;;;;;5028456;28;20728;-54
2021/04/12 05:45:44;;;;;;;0.80;0.80;;;23.00;28.30;;;;;;5034106;28;20317;-55
2021/04/12 05:48:10;;;;;;;0.80;0.80;;;23.00;28.30;;;;;;5032694;28;20198;-54
2021/04/12 05:50:36;;;;;;;0.73;0.73;;;23.00;28.30;;;;;;5033333;28;20564;-54
2021/04/12 05:53:02;;;;;;;1.03;0.70;;;23.00;28.30;;;;;;5032537;28;20245;-55
2021/04/12 05:55:28;;;;;;;1.20;1.10;;;23.00;28.20;;;;;;5033985;28;20218;-55
2021/04/12 05:57:54;;;;;;;0.80;0.80;;;23.00;28.20;;;;;;5033323;28;20670;-54
2021/04/12 06:00:20;;;;;;;1.63;0.90;;;23.00;28.10;;;;;;5032280;28;20229;-56
2021/04/12 06:02:46;;;;;;;0.93;0.90;;;23.00;28.10;;;;;;5033176;28;20202;-54
2021/04/12 06:05:12;;;;;;;3.50;1.10;;;23.00;28.10;;;;;;5028808;28;20201;-58
2021/04/12 06:07:38;;;;;;;1.33;1.00;;;23.00;28.70;;;;;;5020246;28;20669;-52
2021/04/12 06:10:04;;;;;;;0.87;0.80;;;23.00;28.70;;;;;;5030328;28;20593;-42
2021/04/12 06:12:30;;;;;;;5.87;1.00;;;23.10;39.20;;;;;;5012202;23;20369;-49
2021/04/12 06:14:56;;;;;;;3.17;1.90;;;23.10;37.60;;;;;;5007557;28;20221;-47
2021/04/12 06:17:22;;;;;;;3.90;1.00;;;23.10;37.30;;;;;;5011530;28;20457;-53
2021/04/12 06:19:48;;;;;;;3.23;0.97;;;23.00;36.40;;;;;;5008817;28;20838;-54
2021/04/12 06:22:14;;;;;;;2.77;1.00;;;23.00;34.00;;;;;;5012530;28;20218;-49
2021/04/12 06:24:40;;;;;;;5.17;1.20;;;23.00;33.70;;;;;;5012490;28;20230;-51
2021/04/12 06:27:06;;;;;;;5.37;1.20;;;22.90;32.60;;;;;;5013572;28;20214;-47
2021/04/12 06:29:32;;;;;;;3.37;1.53;;;23.00;32.30;;;;;;5010925;28;20221;-48
2021/04/12 06:31:58;;;;;;;3.40;1.13;;;23.00;33.30;;;;;;5010254;28;20221;-49
2021/04/12 06:34:23;;;;;;;2.70;1.10;;;23.00;33.50;;;;;;5011976;28;20281;-45
2021/04/12 06:36:49;;;;;;;2.22;1.00;;;23.00;32.70;;;;;;5012019;28;20225;-50
2021/04/12 06:39:15;;;;;;;3.17;1.10;;;23.00;32.90;;;;;;5007916;28;20211;-49
2021/04/12 06:41:41;;;;;;;4.67;1.30;;;22.90;32.80;;;;;;5004685;28;20564;-49
2021/04/12 06:44:07;;;;;;;3.97;1.90;;;22.90;32.80;;;;;;5012909;28;20230;-51
2021/04/12 06:46:33;;;;;;;4.60;1.43;;;22.90;32.80;;;;;;5012485;28;20209;-53
2021/04/12 06:48:59;;;;;;;5.67;2.33;;;22.90;33.30;;;;;;5013706;28;20214;-50
2021/04/12 06:51:25;;;;;;;4.87;2.20;;;23.00;35.70;;;;;;5011069;28;20210;-49
2021/04/12 06:53:51;;;;;;;2.67;1.60;;;21.10;31.70;;;;;;5007663;28;20233;-52
2021/04/12 06:56:17;;;;;;;4.50;2.03;;;19.90;34.40;;;;;;5011493;28;20323;-54
2021/04/12 06:58:42;;;;;;;2.43;1.17;;;20.80;32.00;;;;;;5012903;28;20649;-55
2021/04/12 07:01:08;;;;;;;2.30;1.27;;;21.50;31.50;;;;;;5010132;28;20240;-53
2021/04/12 07:03:34;;;;;;;3.30;1.50;;;22.00;32.80;;;;;;5011471;28;20280;-54
2021/04/12 07:06:00;;;;;;;4.43;1.50;;;22.30;32.20;;;;;;5012588;28;20211;-55
2021/04/12 07:08:26;;;;;;;1.70;1.30;;;22.50;32.60;;;;;;5011267;28;20566;-54
2021/04/12 07:10:52;;;;;;;3.57;1.20;;;22.80;33.00;;;;;;5010668;28;20201;-55
2021/04/12 07:13:18;;;;;;;3.10;1.47;;;22.80;33.20;;;;;;5001243;28;20237;-53
2021/04/12 07:15:44;;;;;;;2.60;1.60;;;23.00;33.10;;;;;;4999363;28;20397;-54
2021/04/12 07:18:10;;;;;;;2.77;1.30;;;23.10;33.00;;;;;;5011754;28;20668;-50
2021/04/12 07:20:36;;;;;;;3.00;1.37;;;23.20;33.00;;;;;;5006578;28;20247;-56
2021/04/12 07:23:02;;;;;;;4.57;1.33;;;23.20;33.90;;;;;;5010900;28;20226;-64
2021/04/12 07:25:28;;;;;;;3.60;1.70;;;23.30;34.10;;;;;;5011505;28;20218;-58
2021/04/12 07:27:54;;;;;;;3.97;1.43;;;23.30;34.20;;;;;;5007331;28;20665;-64
2021/04/12 07:30:20;;;;;;;4.77;1.47;;;23.30;33.90;;;;;;5010308;28;20678;-65
2021/04/12 07:32:46;;;;;;;3.13;1.60;;;23.30;34.70;;;;;;5011267;28;20227;-61
2021/04/12 07:35:12;;;;;;;4.77;1.53;;;23.30;33.30;;;;;;5009827;28;20206;-69
2021/04/12 07:37:38;;;;;;;2.40;1.33;;;23.20;33.20;;;;;;5008992;28;20224;-63
2021/04/12 07:40:04;;;;;;;2.70;1.30;;;23.20;32.80;;;;;;5011679;28;20698;-66
2021/04/12 07:42:29;;;;;;;1.77;1.33;;;23.20;32.50;;;;;;5009961;28;20230;-64
2021/04/12 07:44:55;;;;;;;3.90;1.60;;;23.20;32.60;;;;;;5010797;28;22027;-63
2021/04/12 07:47:21;;;;;;;2.83;1.17;;;23.20;32.20;;;;;;5010080;28;20214;-60
2021/04/12 07:49:47;;;;;;;2.20;1.50;;;23.20;32.90;;;;;;5011047;28;20985;-59
2021/04/12 07:52:13;;;;;;;3.27;1.23;;;23.10;32.60;;;;;;5025526;28;20249;-59
2021/04/12 07:54:39;;;;;;;2.40;1.10;;;23.10;32.40;;;;;;5013406;28;20701;-60
2021/04/12 07:57:05;;;;;;;3.17;1.10;;;23.10;33.10;;;;;;5010837;28;20202;-59
2021/04/12 07:59:31;;;;;;;1.50;1.30;;;23.10;32.90;;;;;;5001051;28;20210;-60
2021/04/12 08:01:57;;;;;;;3.80;1.20;;;23.10;31.70;;;;;;5010897;28;20245;-60
2021/04/12 08:04:23;;;;;;;1.97;1.20;;;23.00;32.30;;;;;;5009613;28;20235;-59
2021/04/12 08:06:49;;;;;;;7.10;1.60;;;23.00;32.40;;;;;;5005472;28;20264;-61
2021/04/12 08:09:15;;;;;;;8.43;1.33;;;23.00;33.00;;;;;;5006708;28;20569;-59
2021/04/12 08:11:42;;;;;;;3.37;1.27;;;23.00;32.30;;;;;;5005971;28;20283;-62
2021/04/12 08:14:08;;;;;;;2.77;1.17;;;23.00;32.80;;;;;;5009574;28;20719;-58
2021/04/12 08:16:34;;;;;;;3.30;1.20;;;23.10;32.90;;;;;;5009008;28;20286;-61
2021/04/12 08:19:00;;;;;;;3.13;1.33;;;23.10;33.30;;;;;;5009801;28;20205;-63
2021/04/12 08:21:26;;;;;;;3.07;1.03;;;23.10;32.60;;;;;;5009358;28;20246;-59
2021/04/12 08:23:52;;;;;;;3.07;1.30;;;23.10;33.10;;;;;;5007079;28;20207;-57
2021/04/12 08:26:18;;;;;;;6.03;1.33;;;23.10;33.30;;;;;;5007450;28;20200;-57
2021/04/12 08:28:44;;;;;;;3.00;1.50;;;23.10;33.10;;;;;;5008476;28;20282;-59
2021/04/12 08:31:10;;;;;;;3.73;1.40;;;23.10;33.20;;;;;;5008547;28;20677;-63
2021/04/12 08:33:36;;;;;;;2.93;1.10;;;23.10;33.50;;;;;;5011284;28;20214;-56
2021/04/12 08:36:02;;;;;;;1.50;1.10;;;23.10;33.90;;;;;;5010473;28;20522;-60
2021/04/12 08:38:28;;;;;;;2.03;1.10;;;23.10;33.10;;;;;;5009075;28;20206;-52
2021/04/12 08:40:54;;;;;;;3.33;2.07;;;23.10;32.40;;;;;;5005677;28;20313;-53
2021/04/12 08:43:20;;;;;;;4.37;1.10;;;23.20;33.60;;;;;;5009241;28;20738;-61
2021/04/12 08:45:46;;;;;;;3.60;2.13;;;23.20;33.40;;;;;;5011393;28;20210;-59
2021/04/12 08:48:12;;;;;;;3.60;1.67;;;23.20;33.30;;;;;;5009676;28;20203;-62
2021/04/12 08:50:38;;;;;;;13.55;2.03;;;23.20;33.70;;;;;;5005757;28;20207;-60
2021/04/12 08:53:04;;;;;;;2.90;1.00;;;23.20;33.70;;;;;;5009268;28;20219;-59
2021/04/12 08:55:30;;;;;;;1.20;1.07;;;23.10;33.20;;;;;;5011030;28;20659;-59
2021/04/12 08:57:56;;;;;;;2.28;1.45;;;23.10;33.00;;;;;;5010648;28;20195;-59
2021/04/12 09:00:22;;;;;;;3.20;1.30;;;23.10;33.00;;;;;;5007260;28;20726;-59
2021/04/12 09:02:48;;;;;;;1.75;0.93;;;23.10;33.10;;;;;;5004897;28;20229;-59
2021/04/12 09:05:14;;;;;;;1.67;0.95;;;23.10;33.00;;;;;;5009931;28;20242;-59
2021/04/12 09:07:40;;;;;;;2.03;0.90;;;23.10;32.70;;;;;;5006877;28;20222;-59
2021/04/12 09:10:06;;;;;;;1.90;1.00;;;23.10;32.80;;;;;;5010149;28;20194;-59
2021/04/12 09:12:32;;;;;;;1.27;0.90;;;23.10;32.40;;;;;;5009021;28;20235;-59
2021/04/12 09:14:58;;;;;;;2.23;1.20;;;23.10;32.40;;;;;;5008718;28;20245;-59
2021/04/12 09:17:24;;;;;;;1.37;1.10;;;23.10;32.40;;;;;;5009774;28;20535;-60
2021/04/12 09:19:50;;;;;;;2.30;1.13;;;23.10;32.40;;;;;;5009496;28;20222;-60
2021/04/12 09:22:16;;;;;;;1.33;1.10;;;23.10;32.10;;;;;;5008500;28;20219;-59
2021/04/12 09:24:42;;;;;;;4.17;1.00;;;23.10;32.20;;;;;;5009478;28;20563;-61
2021/04/12 09:27:08;;;;;;;1.00;0.93;;;23.10;32.40;;;;;;5007497;28;20200;-59
2021/04/12 09:29:34;;;;;;;1.70;1.10;;;23.10;32.00;;;;;;5009933;28;20210;-60
2021/04/12 09:32:00;;;;;;;3.20;0.90;;;23.10;31.90;;;;;;5006289;28;20242;-60
2021/04/12 09:34:26;;;;;;;1.02;0.90;;;23.10;31.80;;;;;;5010814;28;20242;-61
2021/04/12 09:36:52;;;;;;;2.60;1.13;;;23.10;32.10;;;;;;5011023;28;20575;-56
2021/04/12 09:39:18;;;;;;;1.20;1.00;;;23.10;32.00;;;;;;5009685;28;20214;-59
2021/04/12 09:41:43;;;;;;;1.83;1.03;;;23.10;32.30;;;;;;5003462;28;20234;-57
2021/04/12 09:44:09;;;;;;;1.30;1.00;;;23.10;32.30;;;;;;5008933;28;20548;-58
2021/04/12 09:46:36;;;;;;;1.37;1.10;;;23.10;32.00;;;;;;5010140;28;20195;-61
2021/04/12 09:49:02;;;;;;;2.60;1.20;;;23.10;32.10;;;;;;5010602;28;20661;-59
2021/04/12 09:51:28;;;;;;;3.10;1.20;;;23.10;32.40;;;;;;5008606;28;20227;-59
2021/04/12 09:53:54;;;;;;;2.20;1.27;;;23.10;32.20;;;;;;5010666;28;20214;-58
2021/04/12 09:56:20;;;;;;;2.23;1.33;;;23.10;32.30;;;;;;5010071;28;20202;-59
2021/04/12 09:58:46;;;;;;;2.15;1.02;;;23.10;32.30;;;;;;5009473;28;20710;-60
2021/04/12 10:01:12;;;;;;;2.43;1.50;;;23.10;32.40;;;;;;5009556;28;20238;-59
2021/04/12 10:03:38;;;;;;;2.53;1.50;;;23.10;32.40;;;;;;5009794;28;20210;-60
2021/04/12 10:06:04;;;;;;;3.72;1.70;;;23.10;32.40;;;;;;5009581;28;20583;-60
2021/04/12 10:08:30;;;;;;;4.73;1.70;;;23.10;32.40;;;;;;5008539;28;20195;-58
2021/04/12 10:10:58;;;;;;;3.37;1.90;;;23.10;32.80;;;;;;5006584;28;20238;-60
2021/04/12 10:13:24;;;;;;;2.90;1.50;;;23.10;32.80;;;;;;5005325;28;20206;-59
2021/04/12 10:15:50;;;;;;;1.73;1.45;;;23.10;33.10;;;;;;5009674;28;20204;-59
2021/04/12 10:18:16;;;;;;;3.33;1.80;;;23.10;32.90;;;;;;5007903;28;20199;-59
2021/04/12 10:20:42;;;;;;;2.60;1.70;;;23.10;32.90;;;;;;5007435;28;20226;-61
2021/04/12 10:23:08;;;;;;;4.20;1.80;;;23.10;32.90;;;;;;5008408;28;20602;-59
2021/04/12 10:25:34;;;;;;;2.30;1.40;;;23.10;32.90;;;;;;5008721;28;20206;-60
2021/04/12 10:27:59;;;;;;;2.03;1.25;;;23.10;32.60;;;;;;5008859;28;20218;-61
2021/04/12 10:30:25;;;;;;;2.93;1.60;;;23.10;32.90;;;;;;5009972;28;20574;-58
2021/04/12 10:32:51;;;;;;;3.03;1.50;;;23.10;32.90;;;;;;5012058;28;20227;-59
2021/04/12 10:35:17;;;;;;;2.53;1.52;;;23.10;33.20;;;;;;5011262;28;20666;-60
2021/04/12 10:37:43;;;;;;;4.37;1.50;;;23.10;33.90;;;;;;5011651;28;20210;-60
2021/04/12 10:40:09;;;;;;;2.73;1.40;;;23.10;33.70;;;;;;5010607;28;20742;-56
2021/04/12 10:42:35;;;;;;;6.63;1.60;;;23.10;33.20;;;;;;5013470;28;20237;-60
2021/04/12 10:45:01;;;;;;;3.00;1.50;;;23.10;32.40;;;;;;5010389;28;20211;-61
2021/04/12 10:47:27;;;;;;;1.55;1.30;;;23.00;33.40;;;;;;5003743;28;20629;-62
2021/04/12 10:49:53;;;;;;;3.50;1.50;;;23.00;33.30;;;;;;5007903;28;20265;-61
2021/04/12 10:52:19;;;;;;;3.58;1.30;;;23.00;33.40;;;;;;5017081;28;20252;-61
2021/04/12 10:54:45;;;;;;;2.93;1.43;;;23.10;33.90;;;;;;5010664;28;20206;-62
2021/04/12 10:57:11;;;;;;;4.00;1.50;;;23.10;34.40;;;;;;5012573;28;20485;-62
2021/04/12 10:59:37;;;;;;;4.53;1.30;;;23.10;34.80;;;;;;5004832;28;20574;-63
2021/04/12 11:02:05;;;;;;;2.03;1.23;;;23.10;35.00;;;;;;5010527;28;20257;-63
2021/04/12 11:04:31;;;;;;;2.47;1.30;;;23.10;34.80;;;;;;5013447;28;20286;-60
2021/04/12 11:06:57;;;;;;;3.67;1.35;;;23.10;34.70;;;;;;5010725;28;20261;-61
2021/04/12 11:09:23;;;;;;;3.20;1.52;;;23.10;35.00;;;;;;5012143;28;20213;-62
2021/04/12 11:11:49;;;;;;;3.30;1.43;;;23.10;36.00;;;;;;5012973;28;20610;-62
2021/04/12 11:14:15;;;;;;;2.78;1.30;;;23.10;36.10;;;;;;5010165;28;20202;-61
2021/04/12 11:16:42;;;;;;;3.33;1.20;;;23.20;36.30;;;;;;5011743;28;20651;-63
2021/04/12 11:19:08;;;;;;;2.88;1.33;;;23.20;37.90;;;;;;5010650;28;20258;-63
2021/04/12 11:21:34;;;;;;;3.17;1.52;;;23.20;45.30;;;;;;5012783;28;20695;-64
2021/04/12 11:24:00;;;;;;;1.97;1.20;;;23.20;40.50;;;;;;5012201;28;20253;-63
2021/04/12 11:26:26;;;;;;;2.20;1.13;;;23.20;39.80;;;;;;5011893;28;20196;-63
2021/04/12 11:28:53;;;;;;;3.50;1.50;;;23.20;40.00;;;;;;5009296;28;20502;-62
2021/04/12 11:31:19;;;;;;;2.67;1.20;;;23.20;40.20;;;;;;5010788;28;20575;-62
2021/04/12 11:33:45;;;;;;;1.95;1.23;;;23.20;40.50;;;;;;5010130;28;20211;-60
2021/04/12 11:36:11;;;;;;;2.73;1.50;;;23.20;41.50;;;;;;5011596;28;20226;-67
2021/04/12 11:38:37;;;;;;;2.65;1.20;;;23.30;42.20;;;;;;5012189;28;20205;-67
2021/04/12 11:41:03;;;;;;;1.52;1.02;;;23.20;41.70;;;;;;5010859;28;20706;-67
2021/04/12 11:43:29;;;;;;;2.22;1.25;;;23.20;40.80;;;;;;5013158;28;20273;-66
2021/04/12 11:45:55;;;;;;;2.65;1.30;;;23.20;40.50;;;;;;5011035;28;20210;-67
2021/04/12 11:48:21;;;;;;;1.60;1.17;;;23.20;40.50;;;;;;5012196;28;20255;-67
2021/04/12 11:50:47;;;;;;;1.70;1.10;;;23.10;40.10;;;;;;5006395;28;20224;-66
2021/04/12 11:53:13;;;;;;;3.73;1.37;;;23.10;40.10;;;;;;5007089;28;20199;-67
2021/04/12 11:55:39;;;;;;;1.60;1.10;;;23.10;40.20;;;;;;5010898;28;20207;-67
2021/04/12 11:58:04;;;;;;;2.88;1.10;;;23.10;40.20;;;;;;5011183;28;20206;-67
2021/04/12 12:00:30;;;;;;;2.40;1.20;;;23.10;40.60;;;;;;5010914;28;20638;-67
2021/04/12 12:02:56;;;;;;;1.40;0.98;;;23.10;40.60;;;;;;5011688;28;20205;-68
2021/04/12 12:05:22;;;;;;;1.33;1.00;;;23.10;40.90;;;;;;5010981;28;20688;-68
2021/04/12 12:07:48;;;;;;;1.02;0.93;;;23.10;41.00;;;;;;5012242;28;20210;-68
2021/04/12 12:10:14;;;;;;;2.15;1.45;;;23.10;41.10;;;;;;5010637;28;20289;-68
2021/04/12 12:12:40;;;;;;;1.33;0.90;;;23.10;41.10;;;;;;5023065;23;20238;-66
2021/04/12 12:15:06;;;;;;;1.77;1.20;;;23.10;41.10;;;;;;5012138;28;20210;-65
2021/04/12 12:17:32;;;;;;;1.50;1.10;;;23.10;41.30;;;;;;5010460;28;20204;-66
2021/04/12 12:19:58;;;;;;;1.30;1.10;;;23.10;41.00;;;;;;5011229;28;20690;-64
2021/04/12 12:22:24;;;;;;;2.72;1.20;;;23.10;41.00;;;;;;5030060;28;20210;-65
2021/04/12 12:24:50;;;;;;;1.17;0.90;;;23.10;41.20;;;;;;5031073;28;20500;-65
2021/04/12 12:27:17;;;;;;;1.60;0.90;;;23.10;41.00;;;;;;5029995;28;20207;-65
2021/04/12 12:29:43;;;;;;;1.83;1.00;;;23.10;41.70;;;;;;5027792;28;20194;-65
2021/04/12 12:32:09;;;;;;;1.10;0.90;;;23.10;41.60;;;;;;5027605;28;20229;-65
2021/04/12 12:34:35;;;;;;;1.27;1.10;;;23.10;41.60;;;;;;5013168;28;20219;-65
2021/04/12 12:37:01;;;;;;;1.02;0.90;;;23.10;42.00;;;;;;5029882;28;20201;-66
2021/04/12 12:39:27;;;;;;;1.08;0.80;;;23.10;41.10;;;;;;5030885;28;20535;-65